Cisne Branco — PWCB — position and weather

sailwx.info

Track history (hours):
 
Tides and Currents Weather Stations Pressure Air Temp Water Temp Dewpoint Dewpoint Depression Visibility Wind Speed Wind Dir Waves Ship Positions

Cisne Branco (Brazil)

Last reported at 2015-Jul-06 11:09 UTC. Time now 2015-Jul-08 00:05 UTC.
Position N 55°15' W 006°41'.

Length 78 m; draft 4.8 m.

Type: Sailing vessel. MMSI: 710428000.

Date/timePositionNaut miles runAvg speedWind from/ knotsBaromVisibWave heightAir tempDewpointWater temp
2015-Jul-06 11:09N 55°15' W 006°41'1 1.6
2015-Jul-06 10:33N 55°14' W 006°40'2 1.8
2015-Jul-06 09:33N 55°16' W 006°39'2 2.3
2015-Jul-06 08:33N 55°18' W 006°39'3 2.8
2015-Jul-06 07:33N 55°21' W 006°37'4 3.9
2015-Jul-06 06:33N 55°22' W 006°31'3 3.3
2015-Jul-06 05:33N 55°24' W 006°25'4 3.7
2015-Jul-06 04:33N 55°26' W 006°20'3 3.2
2015-Jul-06 03:33N 55°27' W 006°14'3 3.1
2015-Jul-06 02:33N 55°27' W 006°09'4 4.0
2015-Jul-06 01:31N 55°25' W 006°02'5 4.1
2015-Jul-06 00:25N 55°22' W 005°58'27 3.9
2015-Jul-05 17:32N 54°58' W 005°38'6 6.6
2015-Jul-05 16:33N 54°51' W 005°37'6 6.0
2015-Jul-05 15:30N 54°45' W 005°37'10 4.5
2015-Jul-05 13:18N 54°39' W 005°51'  
Track history (hours):
 
Tides and Currents Weather Stations Pressure Air Temp Water Temp Dewpoint Dewpoint Depression Visibility Wind Speed Wind Dir Waves Ship Positions

Cisne Branco (Brazil)

Last reported at 2015-Jul-06 11:09 UTC. Time now 2015-Jul-08 00:05 UTC.
Position N 55°15' W 006°41'.

Length 78 m; draft 4.8 m.

Type: Sailing vessel. MMSI: 710428000.

Date/timePositionNaut miles runAvg speedWind from/ knotsBaromVisibWave heightAir tempDewpointWater temp
2015-Jul-06 11:09N 55°15' W 006°41'1 1.6
2015-Jul-06 10:33N 55°14' W 006°40'2 1.8
2015-Jul-06 09:33N 55°16' W 006°39'2 2.3
2015-Jul-06 08:33N 55°18' W 006°39'3 2.8
2015-Jul-06 07:33N 55°21' W 006°37'4 3.9
2015-Jul-06 06:33N 55°22' W 006°31'3 3.3
2015-Jul-06 05:33N 55°24' W 006°25'4 3.7
2015-Jul-06 04:33N 55°26' W 006°20'3 3.2
2015-Jul-06 03:33N 55°27' W 006°14'3 3.1
2015-Jul-06 02:33N 55°27' W 006°09'4 4.0
2015-Jul-06 01:31N 55°25' W 006°02'5 4.1
2015-Jul-06 00:25N 55°22' W 005°58'27 3.9
2015-Jul-05 17:32N 54°58' W 005°38'6 6.6
2015-Jul-05 16:33N 54°51' W 005°37'6 6.0
2015-Jul-05 15:30N 54°45' W 005°37'10 4.5
2015-Jul-05 13:18N 54°39' W 005°51'  

Dump ship's entire track history